sensor_id;sensor_type;location;lat;lon;timestamp;temperature;humidity
16517;DHT22;8371;52.272;9.746;2022-07-29T00:02:08;18.20;41.70
16517;DHT22;8371;52.272;9.746;2022-07-29T00:04:35;18.20;41.70
16517;DHT22;8371;52.272;9.746;2022-07-29T00:07:01;18.20;41.10
16517;DHT22;8371;52.272;9.746;2022-07-29T00:09:26;18.20;41.80
16517;DHT22;8371;52.272;9.746;2022-07-29T00:11:53;18.20;41.80
16517;DHT22;8371;52.272;9.746;2022-07-29T00:14:20;18.20;41.90
16517;DHT22;8371;52.272;9.746;2022-07-29T00:16:46;18.20;42.00
16517;DHT22;8371;52.272;9.746;2022-07-29T00:19:11;18.20;42.10
16517;DHT22;8371;52.272;9.746;2022-07-29T00:21:37;18.20;42.10
16517;DHT22;8371;52.272;9.746;2022-07-29T00:24:03;18.20;42.20
16517;DHT22;8371;52.272;9.746;2022-07-29T00:26:29;18.20;42.20
16517;DHT22;8371;52.272;9.746;2022-07-29T00:28:58;18.30;42.30
16517;DHT22;8371;52.272;9.746;2022-07-29T00:31:24;18.30;42.40
16517;DHT22;8371;52.272;9.746;2022-07-29T00:33:50;18.30;42.50
16517;DHT22;8371;52.272;9.746;2022-07-29T00:36:15;18.30;42.50
16517;DHT22;8371;52.272;9.746;2022-07-29T00:38:41;18.40;42.60
16517;DHT22;8371;52.272;9.746;2022-07-29T00:41:09;18.40;42.60
16517;DHT22;8371;52.272;9.746;2022-07-29T00:43:34;18.40;42.60
16517;DHT22;8371;52.272;9.746;2022-07-29T00:46:00;18.40;42.70
16517;DHT22;8371;52.272;9.746;2022-07-29T00:48:26;18.40;42.90
16517;DHT22;8371;52.272;9.746;2022-07-29T00:50:51;18.40;42.90
16517;DHT22;8371;52.272;9.746;2022-07-29T00:53:19;18.40;42.70
16517;DHT22;8371;52.272;9.746;2022-07-29T00:55:45;18.40;42.70
16517;DHT22;8371;52.272;9.746;2022-07-29T00:58:12;18.40;42.70
16517;DHT22;8371;52.272;9.746;2022-07-29T01:00:39;18.40;42.70
16517;DHT22;8371;52.272;9.746;2022-07-29T01:03:07;18.40;42.80
16517;DHT22;8371;52.272;9.746;2022-07-29T01:05:34;18.40;42.90
16517;DHT22;8371;52.272;9.746;2022-07-29T01:08:00;18.40;42.90
16517;DHT22;8371;52.272;9.746;2022-07-29T01:10:27;18.30;42.90
16517;DHT22;8371;52.272;9.746;2022-07-29T01:12:57;18.30;42.90
16517;DHT22;8371;52.272;9.746;2022-07-29T01:15:23;18.30;43.00
16517;DHT22;8371;52.272;9.746;2022-07-29T01:18:12;18.30;43.20
16517;DHT22;8371;52.272;9.746;2022-07-29T01:21:18;18.30;43.30
16517;DHT22;8371;52.272;9.746;2022-07-29T01:26:16;18.20;43.30
16517;DHT22;8371;52.272;9.746;2022-07-29T01:29:05;18.20;43.40
16517;DHT22;8371;52.272;9.746;2022-07-29T01:31:35;18.10;43.50
16517;DHT22;8371;52.272;9.746;2022-07-29T01:34:03;18.10;43.40
16517;DHT22;8371;52.272;9.746;2022-07-29T01:36:36;18.00;43.40
16517;DHT22;8371;52.272;9.746;2022-07-29T01:39:11;18.00;43.50
16517;DHT22;8371;52.272;9.746;2022-07-29T01:42:00;17.90;43.60
16517;DHT22;8371;52.272;9.746;2022-07-29T01:44:31;17.90;43.50
16517;DHT22;8371;52.272;9.746;2022-07-29T01:47:01;17.80;43.60
16517;DHT22;8371;52.272;9.746;2022-07-29T01:49:29;17.80;43.70
16517;DHT22;8371;52.272;9.746;2022-07-29T01:52:02;17.80;43.80
16517;DHT22;8371;52.272;9.746;2022-07-29T01:54:38;17.70;44.10
16517;DHT22;8371;52.272;9.746;2022-07-29T01:57:04;17.70;44.00
16517;DHT22;8371;52.272;9.746;2022-07-29T01:59:33;17.70;44.10
16517;DHT22;8371;52.272;9.746;2022-07-29T02:02:00;17.60;44.30
16517;DHT22;8371;52.272;9.746;2022-07-29T02:04:27;17.60;44.30
16517;DHT22;8371;52.272;9.746;2022-07-29T02:06:55;17.50;44.30
16517;DHT22;8371;52.272;9.746;2022-07-29T02:09:23;17.50;44.50
16517;DHT22;8371;52.272;9.746;2022-07-29T02:11:52;17.50;44.40
16517;DHT22;8371;52.272;9.746;2022-07-29T02:14:20;17.40;44.50
16517;DHT22;8371;52.272;9.746;2022-07-29T02:16:48;17.40;44.60
16517;DHT22;8371;52.272;9.746;2022-07-29T02:19:17;17.40;44.80
16517;DHT22;8371;52.272;9.746;2022-07-29T02:21:44;17.30;44.80
16517;DHT22;8371;52.272;9.746;2022-07-29T02:24:11;17.20;44.80
16517;DHT22;8371;52.272;9.746;2022-07-29T02:26:40;17.20;44.90
16517;DHT22;8371;52.272;9.746;2022-07-29T02:29:08;17.10;45.00
16517;DHT22;8371;52.272;9.746;2022-07-29T02:31:35;17.10;45.10
16517;DHT22;8371;52.272;9.746;2022-07-29T02:34:03;17.10;45.20
16517;DHT22;8371;52.272;9.746;2022-07-29T02:36:31;17.10;45.40
16517;DHT22;8371;52.272;9.746;2022-07-29T02:38:58;17.00;45.30
16517;DHT22;8371;52.272;9.746;2022-07-29T02:41:33;17.00;45.50
16517;DHT22;8371;52.272;9.746;2022-07-29T02:44:15;17.00;45.50
16517;DHT22;8371;52.272;9.746;2022-07-29T02:47:07;17.00;45.60
16517;DHT22;8371;52.272;9.746;2022-07-29T02:49:37;16.90;45.60
16517;DHT22;8371;52.272;9.746;2022-07-29T02:52:12;16.90;45.60
16517;DHT22;8371;52.272;9.746;2022-07-29T02:54:42;16.90;45.70
16517;DHT22;8371;52.272;9.746;2022-07-29T02:57:20;16.90;45.70
16517;DHT22;8371;52.272;9.746;2022-07-29T02:59:48;16.90;45.80
16517;DHT22;8371;52.272;9.746;2022-07-29T03:02:16;16.90;45.80
16517;DHT22;8371;52.272;9.746;2022-07-29T03:04:42;16.90;46.00
16517;DHT22;8371;52.272;9.746;2022-07-29T03:07:10;16.90;46.10
16517;DHT22;8371;52.272;9.746;2022-07-29T03:09:38;16.90;46.10
16517;DHT22;8371;52.272;9.746;2022-07-29T03:12:08;16.90;46.20
16517;DHT22;8371;52.272;9.746;2022-07-29T03:14:35;17.00;46.20
16517;DHT22;8371;52.272;9.746;2022-07-29T03:17:02;17.00;46.20
16517;DHT22;8371;52.272;9.746;2022-07-29T03:19:28;17.00;46.30
16517;DHT22;8371;52.272;9.746;2022-07-29T03:21:56;16.90;45.90
16517;DHT22;8371;52.272;9.746;2022-07-29T03:24:26;17.00;46.30
16517;DHT22;8371;52.272;9.746;2022-07-29T03:26:54;17.00;46.50
16517;DHT22;8371;52.272;9.746;2022-07-29T03:29:20;17.00;46.50
16517;DHT22;8371;52.272;9.746;2022-07-29T03:31:46;17.00;46.60
16517;DHT22;8371;52.272;9.746;2022-07-29T03:34:11;17.00;46.50
16517;DHT22;8371;52.272;9.746;2022-07-29T03:36:37;17.00;46.40
16517;DHT22;8371;52.272;9.746;2022-07-29T03:39:03;17.00;46.50
16517;DHT22;8371;52.272;9.746;2022-07-29T03:41:31;17.10;46.70
16517;DHT22;8371;52.272;9.746;2022-07-29T03:43:57;17.00;46.50
16517;DHT22;8371;52.272;9.746;2022-07-29T03:46:26;17.10;46.60
16517;DHT22;8371;52.272;9.746;2022-07-29T03:48:56;17.00;46.60
16517;DHT22;8371;52.272;9.746;2022-07-29T03:51:23;17.00;46.70
16517;DHT22;8371;52.272;9.746;2022-07-29T03:53:49;17.00;46.90
16517;DHT22;8371;52.272;9.746;2022-07-29T03:56:16;17.10;46.80
16517;DHT22;8371;52.272;9.746;2022-07-29T03:58:43;17.10;46.80
16517;DHT22;8371;52.272;9.746;2022-07-29T04:01:10;17.10;46.90
16517;DHT22;8371;52.272;9.746;2022-07-29T04:03:36;17.10;46.90
16517;DHT22;8371;52.272;9.746;2022-07-29T04:06:04;17.10;46.90
16517;DHT22;8371;52.272;9.746;2022-07-29T04:08:34;17.10;47.20
16517;DHT22;8371;52.272;9.746;2022-07-29T04:11:01;17.10;47.70
16517;DHT22;8371;52.272;9.746;2022-07-29T04:13:27;17.20;47.20
16517;DHT22;8371;52.272;9.746;2022-07-29T04:15:52;17.20;47.10
16517;DHT22;8371;52.272;9.746;2022-07-29T04:18:18;17.20;47.10
16517;DHT22;8371;52.272;9.746;2022-07-29T04:20:44;17.30;47.30
16517;DHT22;8371;52.272;9.746;2022-07-29T04:23:09;17.30;47.40
16517;DHT22;8371;52.272;9.746;2022-07-29T04:25:39;17.30;47.40
16517;DHT22;8371;52.272;9.746;2022-07-29T04:28:06;17.30;47.20
16517;DHT22;8371;52.272;9.746;2022-07-29T04:30:32;17.40;47.30
16517;DHT22;8371;52.272;9.746;2022-07-29T04:33:00;17.40;47.20
16517;DHT22;8371;52.272;9.746;2022-07-29T04:35:27;17.50;47.20
16517;DHT22;8371;52.272;9.746;2022-07-29T04:37:52;17.50;47.30
16517;DHT22;8371;52.272;9.746;2022-07-29T04:40:18;17.50;47.10
16517;DHT22;8371;52.272;9.746;2022-07-29T04:42:44;17.50;47.50
16517;DHT22;8371;52.272;9.746;2022-07-29T04:45:10;17.50;47.50
16517;DHT22;8371;52.272;9.746;2022-07-29T04:47:35;17.60;47.40
16517;DHT22;8371;52.272;9.746;2022-07-29T04:50:01;17.60;48.00
16517;DHT22;8371;52.272;9.746;2022-07-29T04:52:27;17.60;48.10
16517;DHT22;8371;52.272;9.746;2022-07-29T04:54:53;17.60;47.40
16517;DHT22;8371;52.272;9.746;2022-07-29T04:57:18;17.70;47.40
16517;DHT22;8371;52.272;9.746;2022-07-29T04:59:44;17.70;47.40
16517;DHT22;8371;52.272;9.746;2022-07-29T05:02:09;17.80;47.40
16517;DHT22;8371;52.272;9.746;2022-07-29T05:04:35;17.80;47.50
16517;DHT22;8371;52.272;9.746;2022-07-29T05:07:01;17.80;47.40
16517;DHT22;8371;52.272;9.746;2022-07-29T05:09:27;17.90;47.60
16517;DHT22;8371;52.272;9.746;2022-07-29T05:11:52;18.00;47.70
16517;DHT22;8371;52.272;9.746;2022-07-29T05:14:18;18.00;47.70
16517;DHT22;8371;52.272;9.746;2022-07-29T05:16:43;18.10;47.70
16517;DHT22;8371;52.272;9.746;2022-07-29T05:19:09;18.10;47.50
16517;DHT22;8371;52.272;9.746;2022-07-29T05:21:35;18.20;47.60
16517;DHT22;8371;52.272;9.746;2022-07-29T05:24:01;18.30;47.70
16517;DHT22;8371;52.272;9.746;2022-07-29T05:26:26;18.40;47.70
16517;DHT22;8371;52.272;9.746;2022-07-29T05:28:52;18.40;47.60
16517;DHT22;8371;52.272;9.746;2022-07-29T05:31:19;18.50;47.50
16517;DHT22;8371;52.272;9.746;2022-07-29T05:33:44;18.60;47.80
16517;DHT22;8371;52.272;9.746;2022-07-29T05:36:11;18.70;47.70
16517;DHT22;8371;52.272;9.746;2022-07-29T05:38:37;18.80;47.90
16517;DHT22;8371;52.272;9.746;2022-07-29T05:41:06;18.90;47.60
16517;DHT22;8371;52.272;9.746;2022-07-29T05:43:32;19.00;47.60
16517;DHT22;8371;52.272;9.746;2022-07-29T05:45:58;19.10;47.50
16517;DHT22;8371;52.272;9.746;2022-07-29T05:48:24;19.20;48.00
16517;DHT22;8371;52.272;9.746;2022-07-29T05:50:50;19.30;47.50
16517;DHT22;8371;52.272;9.746;2022-07-29T05:53:16;19.40;48.00
16517;DHT22;8371;52.272;9.746;2022-07-29T05:55:42;19.50;47.20
16517;DHT22;8371;52.272;9.746;2022-07-29T05:58:07;19.60;47.10
16517;DHT22;8371;52.272;9.746;2022-07-29T06:00:33;19.60;47.20
16517;DHT22;8371;52.272;9.746;2022-07-29T06:03:00;19.70;47.00
16517;DHT22;8371;52.272;9.746;2022-07-29T06:05:25;19.70;47.00
16517;DHT22;8371;52.272;9.746;2022-07-29T06:07:51;19.70;46.90
16517;DHT22;8371;52.272;9.746;2022-07-29T06:10:17;19.80;47.50
16517;DHT22;8371;52.272;9.746;2022-07-29T06:12:43;19.80;46.90
16517;DHT22;8371;52.272;9.746;2022-07-29T06:15:09;19.90;47.00
16517;DHT22;8371;52.272;9.746;2022-07-29T06:17:35;20.00;47.10
16517;DHT22;8371;52.272;9.746;2022-07-29T06:20:01;20.10;47.30
16517;DHT22;8371;52.272;9.746;2022-07-29T06:22:27;20.30;47.40
16517;DHT22;8371;52.272;9.746;2022-07-29T06:24:52;20.40;47.40
16517;DHT22;8371;52.272;9.746;2022-07-29T06:27:18;20.70;47.60
16517;DHT22;8371;52.272;9.746;2022-07-29T06:29:44;20.90;47.60
16517;DHT22;8371;52.272;9.746;2022-07-29T06:32:10;21.20;47.40
16517;DHT22;8371;52.272;9.746;2022-07-29T06:34:36;21.50;47.30
16517;DHT22;8371;52.272;9.746;2022-07-29T06:37:08;21.80;46.90
16517;DHT22;8371;52.272;9.746;2022-07-29T06:39:35;22.00;46.40
16517;DHT22;8371;52.272;9.746;2022-07-29T06:42:04;22.30;46.10
16517;DHT22;8371;52.272;9.746;2022-07-29T06:44:31;22.50;45.80
16517;DHT22;8371;52.272;9.746;2022-07-29T06:46:56;22.60;45.50
16517;DHT22;8371;52.272;9.746;2022-07-29T06:49:22;22.80;45.40
16517;DHT22;8371;52.272;9.746;2022-07-29T06:51:49;22.90;45.30
16517;DHT22;8371;52.272;9.746;2022-07-29T06:54:15;23.10;45.30
16517;DHT22;8371;52.272;9.746;2022-07-29T06:56:41;23.20;45.10
16517;DHT22;8371;52.272;9.746;2022-07-29T06:59:09;23.40;45.70
16517;DHT22;8371;52.272;9.746;2022-07-29T07:04:22;23.60;44.50
16517;DHT22;8371;52.272;9.746;2022-07-29T07:06:48;23.80;44.30
16517;DHT22;8371;52.272;9.746;2022-07-29T07:09:13;23.80;44.20
16517;DHT22;8371;52.272;9.746;2022-07-29T07:11:39;23.90;44.10
16517;DHT22;8371;52.272;9.746;2022-07-29T07:14:05;23.90;44.10
16517;DHT22;8371;52.272;9.746;2022-07-29T07:16:31;24.00;43.80
16517;DHT22;8371;52.272;9.746;2022-07-29T07:18:57;24.00;43.90
16517;DHT22;8371;52.272;9.746;2022-07-29T07:21:23;24.10;43.80
16517;DHT22;8371;52.272;9.746;2022-07-29T07:23:49;24.10;43.60
16517;DHT22;8371;52.272;9.746;2022-07-29T07:26:14;24.20;43.50
16517;DHT22;8371;52.272;9.746;2022-07-29T07:28:40;24.20;43.20
16517;DHT22;8371;52.272;9.746;2022-07-29T07:31:06;24.20;43.10
16517;DHT22;8371;52.272;9.746;2022-07-29T07:33:31;24.20;43.10
16517;DHT22;8371;52.272;9.746;2022-07-29T07:35:57;24.30;43.10
16517;DHT22;8371;52.272;9.746;2022-07-29T07:38:23;24.30;43.10
16517;DHT22;8371;52.272;9.746;2022-07-29T07:40:48;24.30;43.00
16517;DHT22;8371;52.272;9.746;2022-07-29T07:43:14;24.20;42.90
16517;DHT22;8371;52.272;9.746;2022-07-29T07:45:40;24.20;42.90
16517;DHT22;8371;52.272;9.746;2022-07-29T07:48:06;24.20;42.70
16517;DHT22;8371;52.272;9.746;2022-07-29T07:50:32;24.10;42.70
16517;DHT22;8371;52.272;9.746;2022-07-29T07:52:58;24.00;42.70
16517;DHT22;8371;52.272;9.746;2022-07-29T07:55:23;24.00;42.80
16517;DHT22;8371;52.272;9.746;2022-07-29T07:57:49;23.90;42.90
16517;DHT22;8371;52.272;9.746;2022-07-29T08:00:16;23.90;43.10
16517;DHT22;8371;52.272;9.746;2022-07-29T08:02:42;23.80;43.20
16517;DHT22;8371;52.272;9.746;2022-07-29T08:05:11;23.80;43.00
16517;DHT22;8371;52.272;9.746;2022-07-29T08:07:39;23.80;43.00
16517;DHT22;8371;52.272;9.746;2022-07-29T08:10:05;23.80;43.20
16517;DHT22;8371;52.272;9.746;2022-07-29T08:12:31;23.80;43.10
16517;DHT22;8371;52.272;9.746;2022-07-29T08:14:57;23.80;43.20
16517;DHT22;8371;52.272;9.746;2022-07-29T08:17:22;23.90;43.10
16517;DHT22;8371;52.272;9.746;2022-07-29T08:19:48;23.90;43.20
16517;DHT22;8371;52.272;9.746;2022-07-29T08:22:15;24.00;43.00
16517;DHT22;8371;52.272;9.746;2022-07-29T08:24:40;23.90;43.00
16517;DHT22;8371;52.272;9.746;2022-07-29T08:27:10;23.90;42.90
16517;DHT22;8371;52.272;9.746;2022-07-29T08:29:36;23.90;42.80
16517;DHT22;8371;52.272;9.746;2022-07-29T08:32:02;23.90;42.90
16517;DHT22;8371;52.272;9.746;2022-07-29T08:34:28;23.80;42.90
16517;DHT22;8371;52.272;9.746;2022-07-29T08:36:55;23.80;43.00
16517;DHT22;8371;52.272;9.746;2022-07-29T08:39:22;23.80;43.00
16517;DHT22;8371;52.272;9.746;2022-07-29T08:41:48;23.80;43.10
16517;DHT22;8371;52.272;9.746;2022-07-29T08:44:19;23.80;43.00
16517;DHT22;8371;52.272;9.746;2022-07-29T08:46:47;23.80;43.00
16517;DHT22;8371;52.272;9.746;2022-07-29T08:49:13;23.80;43.00
16517;DHT22;8371;52.272;9.746;2022-07-29T08:51:40;23.80;43.00
16517;DHT22;8371;52.272;9.746;2022-07-29T08:54:09;23.80;43.80
16517;DHT22;8371;52.272;9.746;2022-07-29T08:56:36;23.90;43.20
16517;DHT22;8371;52.272;9.746;2022-07-29T08:59:05;23.90;43.30
16517;DHT22;8371;52.272;9.746;2022-07-29T09:01:33;24.00;43.30
16517;DHT22;8371;52.272;9.746;2022-07-29T09:04:03;24.00;43.40
16517;DHT22;8371;52.272;9.746;2022-07-29T09:06:31;24.10;43.40
16517;DHT22;8371;52.272;9.746;2022-07-29T09:08:59;24.30;43.30
16517;DHT22;8371;52.272;9.746;2022-07-29T09:11:26;24.30;43.20
16517;DHT22;8371;52.272;9.746;2022-07-29T09:13:52;24.50;43.30
16517;DHT22;8371;52.272;9.746;2022-07-29T09:16:17;24.60;44.00
16517;DHT22;8371;52.272;9.746;2022-07-29T09:18:45;24.80;43.00
16517;DHT22;8371;52.272;9.746;2022-07-29T09:21:13;25.00;42.90
16517;DHT22;8371;52.272;9.746;2022-07-29T09:26:31;25.20;42.70
16517;DHT22;8371;52.272;9.746;2022-07-29T09:28:58;25.40;42.60
16517;DHT22;8371;52.272;9.746;2022-07-29T09:31:35;25.40;42.30
16517;DHT22;8371;52.272;9.746;2022-07-29T09:34:01;25.50;42.20
16517;DHT22;8371;52.272;9.746;2022-07-29T09:36:27;25.60;42.00
16517;DHT22;8371;52.272;9.746;2022-07-29T09:39:00;25.60;42.00
16517;DHT22;8371;52.272;9.746;2022-07-29T09:41:27;25.70;41.80
16517;DHT22;8371;52.272;9.746;2022-07-29T09:43:58;25.70;41.70
16517;DHT22;8371;52.272;9.746;2022-07-29T09:46:21;25.80;41.70
16517;DHT22;8371;52.272;9.746;2022-07-29T09:51:34;25.90;41.70
16517;DHT22;8371;52.272;9.746;2022-07-29T09:54:00;25.90;41.60
16517;DHT22;8371;52.272;9.746;2022-07-29T09:56:41;26.00;41.50
16517;DHT22;8371;52.272;9.746;2022-07-29T09:59:08;26.00;41.60
16517;DHT22;8371;52.272;9.746;2022-07-29T10:01:34;26.10;41.40
16517;DHT22;8371;52.272;9.746;2022-07-29T10:04:02;26.10;41.50
16517;DHT22;8371;52.272;9.746;2022-07-29T10:06:27;26.20;41.50
16517;DHT22;8371;52.272;9.746;2022-07-29T10:08:53;26.20;41.70
16517;DHT22;8371;52.272;9.746;2022-07-29T10:11:20;26.40;41.70
16517;DHT22;8371;52.272;9.746;2022-07-29T10:13:48;26.50;41.60
16517;DHT22;8371;52.272;9.746;2022-07-29T10:16:15;26.70;41.90
16517;DHT22;8371;52.272;9.746;2022-07-29T10:18:42;26.80;41.60
16517;DHT22;8371;52.272;9.746;2022-07-29T10:21:09;27.00;41.60
16517;DHT22;8371;52.272;9.746;2022-07-29T10:23:35;27.20;41.30
16517;DHT22;8371;52.272;9.746;2022-07-29T10:26:03;27.30;41.30
16517;DHT22;8371;52.272;9.746;2022-07-29T10:28:32;27.40;41.00
16517;DHT22;8371;52.272;9.746;2022-07-29T10:31:03;27.60;40.90
16517;DHT22;8371;52.272;9.746;2022-07-29T10:42:14;27.90;40.40
16517;DHT22;8371;52.272;9.746;2022-07-29T10:44:40;28.00;40.20
16517;DHT22;8371;52.272;9.746;2022-07-29T10:47:07;28.00;40.00
16517;DHT22;8371;52.272;9.746;2022-07-29T10:49:33;28.10;39.80
16517;DHT22;8371;52.272;9.746;2022-07-29T10:52:04;28.10;39.90
16517;DHT22;8371;52.272;9.746;2022-07-29T10:54:39;28.10;39.60
16517;DHT22;8371;52.272;9.746;2022-07-29T10:59:44;28.10;39.50
16517;DHT22;8371;52.272;9.746;2022-07-29T11:02:41;28.10;39.30
16517;DHT22;8371;52.272;9.746;2022-07-29T11:07:18;28.10;39.30
16517;DHT22;8371;52.272;9.746;2022-07-29T11:09:43;28.10;39.90
16517;DHT22;8371;52.272;9.746;2022-07-29T11:15:04;28.00;39.10
16517;DHT22;8371;52.272;9.746;2022-07-29T11:20:48;27.90;39.10
16517;DHT22;8371;52.272;9.746;2022-07-29T11:23:27;27.80;39.10
16517;DHT22;8371;52.272;9.746;2022-07-29T11:29:03;27.70;39.20
16517;DHT22;8371;52.272;9.746;2022-07-29T11:45:03;27.50;39.60
16517;DHT22;8371;52.272;9.746;2022-07-29T11:47:33;27.50;39.70
16517;DHT22;8371;52.272;9.746;2022-07-29T11:49:59;27.50;39.70
16517;DHT22;8371;52.272;9.746;2022-07-29T11:52:36;27.50;39.80
16517;DHT22;8371;52.272;9.746;2022-07-29T11:55:05;27.50;39.80
16517;DHT22;8371;52.272;9.746;2022-07-29T11:57:33;27.50;39.80
16517;DHT22;8371;52.272;9.746;2022-07-29T12:00:00;27.50;39.80
16517;DHT22;8371;52.272;9.746;2022-07-29T12:02:37;27.60;39.80
16517;DHT22;8371;52.272;9.746;2022-07-29T12:04:56;27.60;39.90
16517;DHT22;8371;52.272;9.746;2022-07-29T12:07:26;27.70;39.80
16517;DHT22;8371;52.272;9.746;2022-07-29T12:09:53;27.80;39.90
16517;DHT22;8371;52.272;9.746;2022-07-29T12:12:20;27.80;39.70
16517;DHT22;8371;52.272;9.746;2022-07-29T12:14:46;28.00;39.90
16517;DHT22;8371;52.272;9.746;2022-07-29T12:17:31;28.10;39.80
16517;DHT22;8371;52.272;9.746;2022-07-29T12:19:59;28.20;39.80
16517;DHT22;8371;52.272;9.746;2022-07-29T12:22:27;28.40;39.70
16517;DHT22;8371;52.272;9.746;2022-07-29T12:24:54;28.50;39.70
16517;DHT22;8371;52.272;9.746;2022-07-29T12:27:19;28.70;39.50
16517;DHT22;8371;52.272;9.746;2022-07-29T12:30:00;28.90;39.30
16517;DHT22;8371;52.272;9.746;2022-07-29T12:32:37;29.10;39.30
16517;DHT22;8371;52.272;9.746;2022-07-29T12:35:12;29.30;39.80
16517;DHT22;8371;52.272;9.746;2022-07-29T12:37:40;29.40;38.80
16517;DHT22;8371;52.272;9.746;2022-07-29T12:40:07;29.60;38.90
16517;DHT22;8371;52.272;9.746;2022-07-29T12:42:34;29.80;38.50
16517;DHT22;8371;52.272;9.746;2022-07-29T12:45:00;29.90;38.20
16517;DHT22;8371;52.272;9.746;2022-07-29T12:47:27;30.00;38.20
16517;DHT22;8371;52.272;9.746;2022-07-29T12:52:37;30.30;38.30
16517;DHT22;8371;52.272;9.746;2022-07-29T12:55:03;30.40;38.50
16517;DHT22;8371;52.272;9.746;2022-07-29T12:57:29;30.60;38.40
16517;DHT22;8371;52.272;9.746;2022-07-29T13:00:03;30.80;37.80
16517;DHT22;8371;52.272;9.746;2022-07-29T13:02:29;31.00;37.60
16517;DHT22;8371;52.272;9.746;2022-07-29T13:04:57;31.20;37.50
16517;DHT22;8371;52.272;9.746;2022-07-29T13:07:29;31.40;37.30
16517;DHT22;8371;52.272;9.746;2022-07-29T13:09:52;31.60;37.30
16517;DHT22;8371;52.272;9.746;2022-07-29T13:12:19;31.80;37.10
16517;DHT22;8371;52.272;9.746;2022-07-29T13:14:47;32.10;37.00
16517;DHT22;8371;52.272;9.746;2022-07-29T13:17:19;32.30;36.30
16517;DHT22;8371;52.272;9.746;2022-07-29T13:19:52;32.60;36.40
16517;DHT22;8371;52.272;9.746;2022-07-29T13:22:21;32.70;35.50
16517;DHT22;8371;52.272;9.746;2022-07-29T13:24:58;32.90;35.70
16517;DHT22;8371;52.272;9.746;2022-07-29T13:27:26;33.10;35.60
16517;DHT22;8371;52.272;9.746;2022-07-29T13:29:54;33.40;35.20
16517;DHT22;8371;52.272;9.746;2022-07-29T13:32:22;33.60;35.20
16517;DHT22;8371;52.272;9.746;2022-07-29T13:34:48;33.80;35.00
16517;DHT22;8371;52.272;9.746;2022-07-29T13:37:15;34.10;34.60
16517;DHT22;8371;52.272;9.746;2022-07-29T13:39:42;34.30;34.50
16517;DHT22;8371;52.272;9.746;2022-07-29T13:42:08;34.50;34.00
16517;DHT22;8371;52.272;9.746;2022-07-29T13:44:34;34.80;33.50
16517;DHT22;8371;52.272;9.746;2022-07-29T13:47:00;34.90;33.00
16517;DHT22;8371;52.272;9.746;2022-07-29T13:49:26;35.00;32.60
16517;DHT22;8371;52.272;9.746;2022-07-29T13:51:53;35.10;32.30
16517;DHT22;8371;52.272;9.746;2022-07-29T13:54:19;35.20;32.20
16517;DHT22;8371;52.272;9.746;2022-07-29T13:56:45;35.20;31.90
16517;DHT22;8371;52.272;9.746;2022-07-29T13:59:11;35.30;31.40
16517;DHT22;8371;52.272;9.746;2022-07-29T14:01:38;35.30;31.10
16517;DHT22;8371;52.272;9.746;2022-07-29T14:04:05;35.30;30.90
16517;DHT22;8371;52.272;9.746;2022-07-29T14:06:31;35.20;30.90
16517;DHT22;8371;52.272;9.746;2022-07-29T14:08:57;35.20;31.10
16517;DHT22;8371;52.272;9.746;2022-07-29T14:11:22;35.20;31.20
16517;DHT22;8371;52.272;9.746;2022-07-29T14:13:48;35.20;30.60
16517;DHT22;8371;52.272;9.746;2022-07-29T14:16:14;35.20;30.40
16517;DHT22;8371;52.272;9.746;2022-07-29T14:18:40;35.20;30.50
16517;DHT22;8371;52.272;9.746;2022-07-29T14:21:05;35.20;30.50
16517;DHT22;8371;52.272;9.746;2022-07-29T14:23:31;35.30;30.70
16517;DHT22;8371;52.272;9.746;2022-07-29T14:25:57;35.30;30.40
16517;DHT22;8371;52.272;9.746;2022-07-29T14:28:22;35.50;30.50
16517;DHT22;8371;52.272;9.746;2022-07-29T14:30:48;35.50;30.00
16517;DHT22;8371;52.272;9.746;2022-07-29T14:33:14;35.70;30.20
16517;DHT22;8371;52.272;9.746;2022-07-29T14:35:39;35.80;29.70
16517;DHT22;8371;52.272;9.746;2022-07-29T14:38:05;35.80;29.50
16517;DHT22;8371;52.272;9.746;2022-07-29T14:40:31;35.70;28.80
16517;DHT22;8371;52.272;9.746;2022-07-29T14:42:56;35.60;28.90
16517;DHT22;8371;52.272;9.746;2022-07-29T14:45:22;35.50;29.10
16517;DHT22;8371;52.272;9.746;2022-07-29T14:47:48;35.50;29.10
16517;DHT22;8371;52.272;9.746;2022-07-29T14:50:16;35.40;29.20
16517;DHT22;8371;52.272;9.746;2022-07-29T14:52:42;35.30;29.00
16517;DHT22;8371;52.272;9.746;2022-07-29T14:55:08;35.30;29.10
16517;DHT22;8371;52.272;9.746;2022-07-29T14:57:34;35.30;29.10
16517;DHT22;8371;52.272;9.746;2022-07-29T15:00:00;35.30;29.20
16517;DHT22;8371;52.272;9.746;2022-07-29T15:02:26;35.20;28.90
16517;DHT22;8371;52.272;9.746;2022-07-29T15:04:51;35.20;28.90
16517;DHT22;8371;52.272;9.746;2022-07-29T15:07:17;35.10;28.90
16517;DHT22;8371;52.272;9.746;2022-07-29T15:09:43;35.10;28.90
16517;DHT22;8371;52.272;9.746;2022-07-29T15:12:10;35.00;28.70
16517;DHT22;8371;52.272;9.746;2022-07-29T15:14:36;35.00;28.70
16517;DHT22;8371;52.272;9.746;2022-07-29T15:17:02;34.90;28.40
16517;DHT22;8371;52.272;9.746;2022-07-29T15:19:28;34.90;28.40
16517;DHT22;8371;52.272;9.746;2022-07-29T15:21:54;34.80;28.60
16517;DHT22;8371;52.272;9.746;2022-07-29T15:24:19;34.80;28.40
16517;DHT22;8371;52.272;9.746;2022-07-29T15:26:46;34.80;28.40
16517;DHT22;8371;52.272;9.746;2022-07-29T15:29:12;34.60;28.30
16517;DHT22;8371;52.272;9.746;2022-07-29T15:31:38;34.60;28.40
16517;DHT22;8371;52.272;9.746;2022-07-29T15:34:04;34.60;28.40
16517;DHT22;8371;52.272;9.746;2022-07-29T15:36:31;34.50;28.20
16517;DHT22;8371;52.272;9.746;2022-07-29T15:38:56;34.50;28.20
16517;DHT22;8371;52.272;9.746;2022-07-29T15:41:22;34.40;28.10
16517;DHT22;8371;52.272;9.746;2022-07-29T15:43:48;34.30;28.10
16517;DHT22;8371;52.272;9.746;2022-07-29T15:46:16;34.30;28.10
16517;DHT22;8371;52.272;9.746;2022-07-29T15:49:01;34.20;28.00
16517;DHT22;8371;52.272;9.746;2022-07-29T15:51:27;34.10;27.90
16517;DHT22;8371;52.272;9.746;2022-07-29T15:53:53;34.00;27.90
16517;DHT22;8371;52.272;9.746;2022-07-29T15:56:19;33.90;27.90
16517;DHT22;8371;52.272;9.746;2022-07-29T15:58:45;33.90;28.00
16517;DHT22;8371;52.272;9.746;2022-07-29T16:01:11;33.90;28.00
16517;DHT22;8371;52.272;9.746;2022-07-29T16:03:37;33.90;28.00
16517;DHT22;8371;52.272;9.746;2022-07-29T16:06:03;33.80;27.70
16517;DHT22;8371;52.272;9.746;2022-07-29T16:08:29;33.80;27.90
16517;DHT22;8371;52.272;9.746;2022-07-29T16:10:54;33.70;27.80
16517;DHT22;8371;52.272;9.746;2022-07-29T16:13:20;33.60;27.70
16517;DHT22;8371;52.272;9.746;2022-07-29T16:15:46;33.60;27.70
16517;DHT22;8371;52.272;9.746;2022-07-29T16:18:12;33.50;27.90
16517;DHT22;8371;52.272;9.746;2022-07-29T16:20:40;33.50;27.80
16517;DHT22;8371;52.272;9.746;2022-07-29T16:23:06;33.60;27.80
16517;DHT22;8371;52.272;9.746;2022-07-29T16:25:34;33.60;27.70
16517;DHT22;8371;52.272;9.746;2022-07-29T16:28:00;33.60;27.60
16517;DHT22;8371;52.272;9.746;2022-07-29T16:30:26;33.60;27.40
16517;DHT22;8371;52.272;9.746;2022-07-29T16:32:52;33.60;27.30
16517;DHT22;8371;52.272;9.746;2022-07-29T16:35:17;33.50;27.20
16517;DHT22;8371;52.272;9.746;2022-07-29T16:37:43;33.40;27.20